Pagrindinis puslapis
METAR-TAF:

METAR-TAF

Oro uostai :

Sakonakhonas, Tailandas

platuma: 17-11-42N, ilguma: 104-07-08E, Aukštis: 161 m

Dabartinis oras

Ataskaita buvo paskelbta 6 valandos ir 7 minutes, ne 12:00 UTC
Vėjas 3 kt iš Pietvakarių
Temperatūra 29°C
Drėgmė 79%
Slėgis 1004 hPa
Matomumas 10 km arba daugiau
Išsisklaidę debesys ne aukštis 3000 ft
Išsisklaidę debesys ne aukštis 8000 ft

METAR: VTUI 301200Z 22003KT 9999 SCT030 SCT080 29/25 Q1004 NOSIG

Laikas: 01:07 (18:07 UTC)

Prognozė

Ataskaita buvo paskelbta 1 valandą ir 7 minutes, ne 17:00 UTC
Prognozė galioja nuo 30 metu 18 UTC su 01 metu 18 UTC
Vėjas 5 kt iš Rytų/Pietryčių
Matomumas 10 km arba daugiau
Išsisklaidę debesys ne aukštis 3000 ft
Laikinai
nuo 01 metu 06 UTC su 01 metu 12 UTC
Vėjas 15 kt nuo kintamojo kryptimis
Matomumas: 4000 m
Mažai debesys ne aukštis 1800 ft, Liūtiniai kamuoliniai debesys.
Su prošvaistėmis ne aukštis 2500 ft
Su prošvaistėmis ne aukštis 8000 ft
perkūnija, lietus

TAF: VTUI 301700Z 3018/0118 12005KT 9999 SCT030 TEMPO 0106/0112 VRB15KT 4000 TSRA FEW018CB BKN025 BKN080

Orai ataskaitas ir orų prognozės (METAR, TAF).

turimą stotys yra geltonos ir raudonos taškus žemėlapyje.

Perkelti pele per norėdami pamatyti stoties vardą.

Tada spustelėkite, norėdami matyti oro stebėjimo ir prognozės.

Norėdami pakeisti žemėlapį: spustelėkite ant žalios mygtukų su juodo kryžiaus žemyn,; žalią mygtuką su brūkšneliu, jei norite nutolinti; arba žalių rodyklių gretimoms žemėlapius.


METAR-TAF: